Time;durP1;ratioP1;P1;durP2;ratioP2;P2;SDS_P1;SDS_P2;PMS_P1;PMS_P2;Temp;Humidity;BMP_temperature;BMP_pressure;BME280_temperature;BME280_humidity;BME280_pressure;Samples;Min_cycle;Max_cycle;Signal;HPM_P1;HPM_P2
2023/07/16 00:01:57;;;;;;;25.88;23.15;;;22.10;99.90;;;;;;5041241;28;20146;-76
2023/07/16 00:04:25;;;;;;;25.98;23.35;;;22.10;99.90;;;;;;5030931;28;20042;-77
2023/07/16 00:06:53;;;;;;;27.35;24.70;;;22.00;99.90;;;;;;5030564;28;20371;-76
2023/07/16 00:09:20;;;;;;;27.90;24.15;;;22.00;99.90;;;;;;5030737;28;20046;-76
2023/07/16 00:11:48;;;;;;;26.13;23.63;;;22.00;99.90;;;;;;5030168;28;20076;-75
2023/07/16 00:14:15;;;;;;;26.52;23.80;;;22.00;99.90;;;;;;5030531;28;20088;-75
2023/07/16 00:16:42;;;;;;;26.73;24.30;;;22.00;99.90;;;;;;5051074;28;20029;-78
2023/07/16 00:19:11;;;;;;;27.25;24.40;;;21.90;99.90;;;;;;5056179;28;20185;-76
2023/07/16 00:21:38;;;;;;;25.88;23.25;;;21.90;99.90;;;;;;5045957;28;20148;-77
2023/07/16 00:24:07;;;;;;;27.73;25.02;;;21.90;99.90;;;;;;5038366;28;20508;-75
2023/07/16 00:26:34;;;;;;;27.42;24.85;;;21.90;99.90;;;;;;5030356;28;20042;-75
2023/07/16 00:29:03;;;;;;;28.58;25.67;;;21.90;99.90;;;;;;5030490;28;20037;-75
2023/07/16 00:31:30;;;;;;;26.77;24.08;;;21.80;99.90;;;;;;5029076;28;20037;-76
2023/07/16 00:33:57;;;;;;;28.83;25.65;;;21.80;99.90;;;;;;5029004;28;20046;-75
2023/07/16 00:36:24;;;;;;;30.42;27.52;;;21.80;99.90;;;;;;5029779;28;20049;-76
2023/07/16 00:38:51;;;;;;;29.45;26.40;;;21.80;99.90;;;;;;5028402;28;20041;-75
2023/07/16 00:41:20;;;;;;;36.55;32.72;;;21.70;99.90;;;;;;5031801;28;20046;-77
2023/07/16 00:43:47;;;;;;;32.22;29.02;;;21.70;99.90;;;;;;5039797;28;20053;-77
2023/07/16 00:46:15;;;;;;;27.50;24.73;;;21.70;99.90;;;;;;5052803;28;20106;-74
2023/07/16 00:48:43;;;;;;;27.23;24.55;;;21.70;99.90;;;;;;5049896;28;20037;-76
2023/07/16 00:51:10;;;;;;;25.90;23.42;;;21.70;99.90;;;;;;5047580;28;20033;-75
2023/07/16 00:53:37;;;;;;;25.58;23.17;;;21.70;99.90;;;;;;5047693;28;20465;-75
2023/07/16 00:56:05;;;;;;;27.27;24.65;;;21.70;99.90;;;;;;5049730;28;20044;-75
2023/07/16 00:58:34;;;;;;;27.15;24.35;;;21.60;99.90;;;;;;5049052;28;20043;-77
2023/07/16 01:01:02;;;;;;;26.45;23.95;;;21.60;99.90;;;;;;5047161;28;20060;-76
2023/07/16 01:03:30;;;;;;;28.80;24.80;;;21.60;99.90;;;;;;5028010;28;20045;-77
2023/07/16 01:06:05;;;;;;;27.52;24.83;;;21.50;99.90;;;;;;5029785;28;20136;-77
2023/07/16 01:08:47;;;;;;;26.77;24.05;;;21.50;99.90;;;;;;5028483;28;20448;-77
2023/07/16 01:11:15;;;;;;;26.20;23.60;;;21.50;99.90;;;;;;5029034;28;20041;-76
2023/07/16 01:13:45;;;;;;;26.98;24.38;;;21.40;99.90;;;;;;5028961;28;20095;-77
2023/07/16 01:16:20;;;;;;;28.02;25.30;;;21.40;99.90;;;;;;5028048;28;20526;-76
2023/07/16 01:18:48;;;;;;;26.85;24.35;;;21.40;99.90;;;;;;5027872;28;20041;-77
2023/07/16 01:21:15;;;;;;;28.17;25.30;;;21.40;99.90;;;;;;5027092;28;20049;-76
2023/07/16 01:24:03;;;;;;;28.42;25.63;;;21.40;99.90;;;;;;5049417;28;20405;-76
2023/07/16 01:27:09;;;;;;;27.50;24.58;;;21.40;99.90;;;;;;5049020;28;20087;-75
2023/07/16 01:29:40;;;;;;;28.52;25.63;;;21.40;99.90;;;;;;4995926;28;20050;-75
2023/07/16 01:32:10;;;;;;;28.85;26.05;;;21.30;99.90;;;;;;5027815;28;20486;-75
2023/07/16 01:34:38;;;;;;;29.70;26.67;;;21.20;99.90;;;;;;5029544;28;20045;-77
2023/07/16 01:37:06;;;;;;;28.80;25.92;;;21.20;99.90;;;;;;5028914;28;20371;-77
2023/07/16 01:39:33;;;;;;;26.70;23.88;;;21.20;99.90;;;;;;5030080;28;20037;-77
2023/07/16 01:42:01;;;;;;;28.63;25.83;;;21.20;99.90;;;;;;5030215;28;20042;-77
2023/07/16 01:44:28;;;;;;;28.10;25.13;;;21.20;99.90;;;;;;5042498;28;20087;-76
2023/07/16 01:47:08;;;;;;;27.42;24.58;;;21.20;99.90;;;;;;5047599;28;20064;-75
2023/07/16 01:49:36;;;;;;;27.95;25.00;;;21.20;99.90;;;;;;5048200;28;20048;-78
2023/07/16 01:52:04;;;;;;;27.60;24.90;;;21.20;99.90;;;;;;5049497;28;20133;-76
2023/07/16 01:54:31;;;;;;;27.45;24.67;;;21.20;99.90;;;;;;5050962;28;20049;-77
2023/07/16 01:56:59;;;;;;;28.05;25.13;;;21.20;99.90;;;;;;5050313;28;20037;-76
2023/07/16 01:59:26;;;;;;;27.83;25.02;;;21.20;99.90;;;;;;5048476;28;20579;-76
2023/07/16 02:01:57;;;;;;;27.75;24.83;;;21.10;99.90;;;;;;5039571;28;20034;-76
2023/07/16 02:04:25;;;;;;;26.95;24.27;;;21.20;99.90;;;;;;5029108;28;20329;-75
2023/07/16 02:06:52;;;;;;;26.00;23.35;;;21.20;99.90;;;;;;5027519;28;20073;-76
2023/07/16 02:09:25;;;;;;;27.83;25.10;;;21.10;99.90;;;;;;5029524;28;20046;-75
2023/07/16 02:11:52;;;;;;;27.35;24.75;;;21.00;99.90;;;;;;5030099;28;20056;-76
2023/07/16 02:14:19;;;;;;;29.63;26.58;;;21.00;99.90;;;;;;5033908;28;20046;-76
2023/07/16 02:16:47;;;;;;;29.02;26.02;;;21.00;99.90;;;;;;5031978;28;20108;-76
2023/07/16 02:19:14;;;;;;;27.73;25.15;;;21.00;99.90;;;;;;5047193;28;20041;-76
2023/07/16 02:21:44;;;;;;;27.90;25.20;;;21.00;99.90;;;;;;5052147;28;20110;-76
2023/07/16 02:24:11;;;;;;;28.60;25.63;;;21.00;99.90;;;;;;5052572;28;20311;-77
2023/07/16 02:26:38;;;;;;;29.10;26.13;;;21.00;99.90;;;;;;5050681;28;20048;-77
2023/07/16 02:29:08;;;;;;;29.25;26.38;;;20.90;99.90;;;;;;5052045;28;20068;-76
2023/07/16 02:31:36;;;;;;;28.20;25.35;;;20.90;99.90;;;;;;5051021;28;20037;-75
2023/07/16 02:34:03;;;;;;;27.65;25.00;;;20.90;99.90;;;;;;5051026;28;20061;-74
2023/07/16 02:36:34;;;;;;;27.10;24.40;;;20.90;99.90;;;;;;5052602;28;20067;-76
2023/07/16 02:39:03;;;;;;;27.33;24.70;;;20.90;99.90;;;;;;5052562;28;20044;-77
2023/07/16 02:41:31;;;;;;;26.88;24.17;;;20.90;99.90;;;;;;5051891;28;20442;-77
2023/07/16 02:44:02;;;;;;;28.35;25.35;;;20.80;99.90;;;;;;5051120;28;20041;-76
2023/07/16 02:46:29;;;;;;;27.73;24.85;;;20.80;99.90;;;;;;5052016;28;20119;-75
2023/07/16 02:48:57;;;;;;;27.92;24.92;;;20.70;99.90;;;;;;5052061;28;20424;-75
2023/07/16 02:51:24;;;;;;;28.15;25.23;;;20.60;99.90;;;;;;5051465;28;20075;-75
2023/07/16 02:53:52;;;;;;;28.65;25.67;;;20.60;99.90;;;;;;5050452;28;20397;-77
2023/07/16 02:56:20;;;;;;;28.80;25.95;;;20.60;99.90;;;;;;5051567;28;20041;-75
2023/07/16 02:58:48;;;;;;;28.55;25.73;;;20.60;99.90;;;;;;5051820;28;20424;-75
2023/07/16 03:01:16;;;;;;;30.98;25.83;;;20.60;99.90;;;;;;5046913;28;20046;-75
2023/07/16 03:03:43;;;;;;;27.85;25.08;;;20.60;99.90;;;;;;5030312;28;20103;-75
2023/07/16 03:06:11;;;;;;;27.65;24.85;;;20.60;99.90;;;;;;5030265;28;20045;-76
2023/07/16 03:08:38;;;;;;;28.42;25.48;;;20.60;99.90;;;;;;5031355;28;20065;-78
2023/07/16 03:11:06;;;;;;;27.88;24.92;;;20.60;99.90;;;;;;5029635;28;20085;-80
2023/07/16 03:13:34;;;;;;;25.95;23.55;;;20.60;99.90;;;;;;5030394;28;20064;-76
2023/07/16 03:16:02;;;;;;;27.75;25.10;;;20.60;99.90;;;;;;5029730;28;20045;-76
2023/07/16 03:18:30;;;;;;;26.83;24.17;;;20.70;99.90;;;;;;5031200;28;20037;-76
2023/07/16 03:20:58;;;;;;;27.40;24.45;;;20.60;99.90;;;;;;5029716;28;20042;-75
2023/07/16 03:23:26;;;;;;;25.45;22.85;;;20.70;99.90;;;;;;5029683;28;20042;-75
2023/07/16 03:25:53;;;;;;;29.17;24.20;;;20.70;99.90;;;;;;5029988;28;20041;-76
2023/07/16 03:28:21;;;;;;;26.60;24.00;;;20.70;99.90;;;;;;5032915;28;20048;-77
2023/07/16 03:30:51;;;;;;;25.60;22.83;;;20.70;99.90;;;;;;5064472;28;20029;-76
2023/07/16 03:33:20;;;;;;;26.92;24.30;;;20.70;99.90;;;;;;5076717;28;20093;-78
2023/07/16 03:35:48;;;;;;;26.83;24.27;;;20.70;99.90;;;;;;5066462;28;20056;-75
2023/07/16 03:38:19;;;;;;;26.48;23.90;;;20.80;99.90;;;;;;5059854;28;20041;-77
2023/07/16 03:40:48;;;;;;;27.23;24.45;;;20.80;99.90;;;;;;5037556;28;20129;-76
2023/07/16 03:43:16;;;;;;;27.42;24.88;;;20.80;99.90;;;;;;5029806;28;20064;-75
2023/07/16 03:45:44;;;;;;;26.02;23.63;;;20.80;99.90;;;;;;5030428;28;20393;-75
2023/07/16 03:48:13;;;;;;;25.88;23.38;;;20.90;99.90;;;;;;5035782;28;20041;-75
2023/07/16 03:50:41;;;;;;;26.58;22.70;;;20.90;99.90;;;;;;5040600;28;20038;-75
2023/07/16 03:53:08;;;;;;;25.67;22.58;;;20.90;99.90;;;;;;5037528;28;20054;-76
2023/07/16 03:55:36;;;;;;;25.50;22.90;;;21.00;99.90;;;;;;5034446;28;20045;-74
2023/07/16 03:58:04;;;;;;;26.15;23.67;;;20.90;99.90;;;;;;5029561;28;20041;-75
2023/07/16 04:00:31;;;;;;;26.90;24.40;;;21.00;99.90;;;;;;5028424;28;20457;-76
2023/07/16 04:02:59;;;;;;;25.10;22.75;;;21.20;99.90;;;;;;5047662;28;20041;-75
2023/07/16 04:05:28;;;;;;;24.02;21.15;;;21.80;99.90;;;;;;5050324;28;20137;-76
2023/07/16 04:07:55;;;;;;;22.48;20.15;;;22.30;99.90;;;;;;5049299;28;20447;-76
2023/07/16 04:10:22;;;;;;;22.27;19.42;;;22.90;99.90;;;;;;5049996;28;20037;-75
2023/07/16 04:12:49;;;;;;;20.83;18.50;;;23.50;99.90;;;;;;5051029;28;20527;-74
2023/07/16 04:15:17;;;;;;;21.13;19.02;;;23.90;99.90;;;;;;5050141;28;20064;-77
2023/07/16 04:17:44;;;;;;;20.02;17.15;;;24.30;99.90;;;;;;5051003;28;20144;-77
2023/07/16 04:20:12;;;;;;;19.33;17.20;;;24.70;99.90;;;;;;5050471;28;20033;-77
2023/07/16 04:22:41;;;;;;;18.38;16.52;;;25.00;99.90;;;;;;5050967;28;20048;-77
2023/07/16 04:25:09;;;;;;;18.33;16.58;;;25.40;99.90;;;;;;5050010;28;20683;-76
2023/07/16 04:27:36;;;;;;;19.38;16.52;;;25.70;99.90;;;;;;5050081;28;20064;-77
2023/07/16 04:30:04;;;;;;;18.13;16.23;;;25.90;99.90;;;;;;5034001;28;20065;-76
2023/07/16 04:32:32;;;;;;;19.40;16.83;;;26.00;99.90;;;;;;5030722;28;20397;-76
2023/07/16 04:35:00;;;;;;;16.92;15.18;;;26.30;99.90;;;;;;5029134;28;20046;-77
2023/07/16 04:37:27;;;;;;;15.30;13.93;;;26.60;49.10;;;;;;5045752;28;20536;-77
2023/07/16 04:39:56;;;;;;;21.00;16.48;;;27.00;99.90;;;;;;5049637;28;20136;-76
2023/07/16 04:42:23;;;;;;;16.17;14.02;;;28.00;99.90;;;;;;5049932;28;20103;-76
2023/07/16 04:44:51;;;;;;;17.50;13.82;;;28.60;99.90;;;;;;5062304;22;20460;-82
2023/07/16 04:47:18;;;;;;;17.08;13.38;;;29.10;99.90;;;;;;5049967;28;20576;-83
2023/07/16 04:49:45;;;;;;;15.40;13.80;;;29.90;99.90;;;;;;5049937;28;20041;-83
2023/07/16 04:52:13;;;;;;;14.60;12.88;;;30.40;99.90;;;;;;5048228;28;20087;-83
2023/07/16 04:54:41;;;;;;;15.75;14.07;;;30.40;99.90;;;;;;5049573;28;20091;-83
2023/07/16 04:57:09;;;;;;;14.65;13.10;;;30.90;99.90;;;;;;5049470;28;20069;-83
2023/07/16 04:59:37;;;;;;;17.80;13.90;;;31.00;99.90;;;;;;5048349;28;20057;-84
2023/07/16 05:02:06;;;;;;;19.92;15.00;;;31.00;99.90;;;;;;5049203;28;20041;-84
2023/07/16 05:04:34;;;;;;;17.50;15.70;;;31.40;99.90;;;;;;5050275;28;20061;-83
2023/07/16 05:07:02;;;;;;;18.20;14.40;;;32.00;99.90;;;;;;5049219;28;20044;-84
2023/07/16 05:09:30;;;;;;;17.63;14.25;;;32.30;99.90;;;;;;5049467;28;20069;-84
2023/07/16 05:11:58;;;;;;;17.55;15.27;;;31.70;99.90;;;;;;5048985;28;20136;-84
2023/07/16 05:14:29;;;;;;;16.02;13.98;;;31.40;99.90;;;;;;5048474;28;20047;-83
2023/07/16 05:16:56;;;;;;;16.73;13.70;;;32.00;99.90;;;;;;5049214;28;20044;-84
2023/07/16 05:19:24;;;;;;;14.98;13.45;;;31.50;99.90;;;;;;5049799;28;20405;-82
2023/07/16 05:21:51;;;;;;;18.20;13.32;;;32.40;99.90;;;;;;5048965;28;20061;-83
2023/07/16 05:24:18;;;;;;;16.17;13.50;;;32.90;99.90;;;;;;5049855;28;20041;-83
2023/07/16 05:26:46;;;;;;;14.77;13.27;;;33.40;99.90;;;;;;5049183;28;20049;-84
2023/07/16 05:29:13;;;;;;;14.32;12.93;;;33.80;99.90;;;;;;5038361;28;20044;-83
2023/07/16 05:31:44;;;;;;;16.55;13.98;;;33.90;99.90;;;;;;5029658;28;20536;-83
2023/07/16 05:34:11;;;;;;;15.35;13.85;;;33.90;99.90;;;;;;5048991;28;20045;-82
2023/07/16 05:36:38;;;;;;;14.70;13.20;;;33.90;99.90;;;;;;5049536;28;20041;-82
2023/07/16 05:39:06;;;;;;;16.67;15.02;;;33.70;99.90;;;;;;5049461;28;20502;-84
2023/07/16 05:41:33;;;;;;;16.63;14.23;;;33.70;99.90;;;;;;5047821;28;20033;-83
2023/07/16 05:44:00;;;;;;;15.00;13.63;;;34.00;99.90;;;;;;5051784;28;20049;-82
2023/07/16 05:46:27;;;;;;;14.30;13.10;;;34.60;99.90;;;;;;5053269;28;20044;-82
2023/07/16 05:48:56;;;;;;;15.60;13.82;;;34.90;99.90;;;;;;5054336;28;20037;-82
2023/07/16 05:51:23;;;;;;;15.23;13.82;;;34.70;99.90;;;;;;5052996;28;20091;-83
2023/07/16 05:53:50;;;;;;;19.50;16.33;;;34.20;99.90;;;;;;5053074;28;20092;-83
2023/07/16 05:56:18;;;;;;;15.45;13.95;;;34.30;99.90;;;;;;5052800;28;20029;-83
2023/07/16 05:58:45;;;;;;;15.70;13.93;;;34.60;99.90;;;;;;5053342;28;20450;-83
2023/07/16 06:01:13;;;;;;;15.93;14.32;;;35.40;99.90;;;;;;5052135;28;20041;-83
2023/07/16 06:03:40;;;;;;;17.67;14.85;;;35.50;99.90;;;;;;5052889;28;20061;-83
2023/07/16 06:06:10;;;;;;;16.08;14.57;;;35.50;99.90;;;;;;5054153;28;20048;-81
2023/07/16 06:08:37;;;;;;;19.58;15.25;;;35.00;99.90;;;;;;5056571;28;20505;-81
2023/07/16 06:11:05;;;;;;;17.58;15.80;;;34.20;99.90;;;;;;5056176;28;20053;-83
2023/07/16 06:13:32;;;;;;;17.48;15.63;;;33.80;99.90;;;;;;5051842;28;20045;-83
2023/07/16 06:16:00;;;;;;;18.52;15.98;;;33.10;99.90;;;;;;5052563;28;20065;-82
2023/07/16 06:18:27;;;;;;;18.05;16.35;;;32.20;99.90;;;;;;5052597;28;20049;-83
2023/07/16 06:20:55;;;;;;;19.08;16.73;;;31.60;99.90;;;;;;5052409;28;20580;-81
2023/07/16 06:23:23;;;;;;;21.05;17.95;;;31.20;99.90;;;;;;5053828;28;20079;-82
2023/07/16 06:25:55;;;;;;;19.20;17.20;;;30.90;99.90;;;;;;5053667;28;20485;-83
2023/07/16 06:28:23;;;;;;;20.30;17.50;;;30.70;99.90;;;;;;5051540;28;20049;-82
2023/07/16 06:30:51;;;;;;;19.33;17.42;;;31.00;99.90;;;;;;5033668;28;20107;-83
2023/07/16 06:33:19;;;;;;;19.85;17.95;;;31.00;99.90;;;;;;5034155;28;20119;-82
2023/07/16 06:35:47;;;;;;;20.73;17.00;;;31.20;99.90;;;;;;5033934;28;20049;-82
2023/07/16 06:38:15;;;;;;;24.75;18.15;;;31.00;99.90;;;;;;5032711;28;20519;-83
2023/07/16 06:40:49;;;;;;;19.92;18.00;;;30.50;99.90;;;;;;5033254;28;20382;-83
2023/07/16 06:43:16;;;;;;;20.10;18.23;;;30.60;99.90;;;;;;5035709;28;20151;-82
2023/07/16 06:45:43;;;;;;;20.50;18.33;;;30.60;99.90;;;;;;5051984;28;20071;-83
2023/07/16 06:48:11;;;;;;;21.23;18.98;;;31.00;99.90;;;;;;5051997;28;20098;-83
2023/07/16 06:50:39;;;;;;;20.98;18.83;;;31.30;99.90;;;;;;5051629;28;20045;-83
2023/07/16 06:53:06;;;;;;;20.98;18.98;;;31.40;99.90;;;;;;5051523;28;20040;-83
2023/07/16 06:55:33;;;;;;;22.10;19.83;;;31.00;99.90;;;;;;5052028;28;20041;-83
2023/07/16 06:58:02;;;;;;;21.38;19.30;;;30.50;99.90;;;;;;5051259;28;20095;-83
2023/07/16 07:00:30;;;;;;;24.15;20.13;;;30.30;99.90;;;;;;5050694;28;20044;-83
2023/07/16 07:02:57;;;;;;;22.17;19.85;;;30.50;99.90;;;;;;5051512;28;20056;-83
2023/07/16 07:05:24;;;;;;;22.85;20.60;;;31.00;99.90;;;;;;5051497;28;20048;-84
2023/07/16 07:07:52;;;;;;;23.52;21.02;;;31.40;99.90;;;;;;5052119;28;20488;-84
2023/07/16 07:10:19;;;;;;;25.13;21.27;;;31.70;99.90;;;;;;5051676;28;20590;-83
2023/07/16 07:12:46;;;;;;;23.70;21.30;;;32.00;99.90;;;;;;5051389;28;20064;-83
2023/07/16 07:15:15;;;;;;;23.73;21.33;;;32.30;99.90;;;;;;5051613;28;20049;-84
2023/07/16 07:17:46;;;;;;;24.95;21.80;;;32.40;99.90;;;;;;5051370;28;20060;-83
2023/07/16 07:20:14;;;;;;;23.30;20.73;;;32.10;99.90;;;;;;5051242;28;20037;-83
2023/07/16 07:22:42;;;;;;;26.98;21.92;;;32.20;99.90;;;;;;5051759;28;20090;-84
2023/07/16 07:25:09;;;;;;;25.73;21.30;;;32.20;99.90;;;;;;5051117;28;20037;-82
2023/07/16 07:27:37;;;;;;;23.27;20.52;;;32.40;99.90;;;;;;5050965;28;20052;-83
2023/07/16 07:30:04;;;;;;;32.53;23.13;;;32.50;99.90;;;;;;5034194;28;20046;-84
2023/07/16 07:32:33;;;;;;;25.42;21.27;;;32.70;99.90;;;;;;5031517;28;20041;-83
2023/07/16 07:35:01;;;;;;;25.95;22.15;;;32.70;99.90;;;;;;5032923;28;20489;-84
2023/07/16 07:37:28;;;;;;;28.20;21.17;;;32.70;99.90;;;;;;5031573;28;20042;-84
2023/07/16 07:39:56;;;;;;;26.67;22.25;;;32.50;99.90;;;;;;5031093;28;20433;-84
2023/07/16 07:42:23;;;;;;;27.27;22.10;;;32.40;99.90;;;;;;5031450;28;20533;-84
2023/07/16 07:44:51;;;;;;;27.75;22.52;;;32.50;99.90;;;;;;5047137;28;20052;-83
2023/07/16 07:47:18;;;;;;;27.65;21.77;;;32.60;99.90;;;;;;5050575;28;20048;-84
2023/07/16 07:49:46;;;;;;;28.55;22.83;;;32.70;99.90;;;;;;5053625;28;20047;-84
2023/07/16 07:52:14;;;;;;;24.40;21.90;;;32.80;99.90;;;;;;5055670;28;20087;-82
2023/07/16 07:54:41;;;;;;;24.10;21.55;;;32.90;99.90;;;;;;5051888;28;20045;-86
2023/07/16 07:57:09;;;;;;;27.10;21.20;;;32.90;99.90;;;;;;5051112;28;20048;-86
2023/07/16 07:59:36;;;;;;;24.70;21.88;;;32.90;99.90;;;;;;5051693;28;20536;-84
2023/07/16 08:02:03;;;;;;;25.13;20.92;;;32.80;99.90;;;;;;5050700;28;20493;-83
2023/07/16 08:04:32;;;;;;;24.02;20.98;;;32.80;99.90;;;;;;5051723;28;20117;-83
2023/07/16 08:07:00;;;;;;;22.60;20.13;;;32.80;99.90;;;;;;5051018;28;20048;-83
2023/07/16 08:09:28;;;;;;;23.25;20.83;;;32.70;99.90;;;;;;5051057;28;20099;-82
2023/07/16 08:11:55;;;;;;;24.58;21.20;;;32.70;99.90;;;;;;5049454;28;20052;-83
2023/07/16 08:14:22;;;;;;;23.33;20.83;;;32.80;99.90;;;;;;5051921;28;20045;-82
2023/07/16 08:16:49;;;;;;;23.23;20.92;;;32.70;99.90;;;;;;5051480;28;20069;-84
2023/07/16 08:19:17;;;;;;;24.67;22.05;;;32.50;99.90;;;;;;5052081;28;20045;-85
2023/07/16 08:21:45;;;;;;;24.50;21.08;;;32.40;99.90;;;;;;5057913;28;20483;-85
2023/07/16 08:24:13;;;;;;;22.55;20.27;;;32.40;99.90;;;;;;5059865;28;20041;-83
2023/07/16 08:26:41;;;;;;;23.67;20.60;;;32.70;99.90;;;;;;5056931;28;20539;-83
2023/07/16 08:29:08;;;;;;;24.13;20.80;;;32.80;99.90;;;;;;5049415;28;20044;-84
2023/07/16 08:31:35;;;;;;;21.58;19.27;;;32.80;99.90;;;;;;5044342;28;20064;-84
2023/07/16 08:34:02;;;;;;;22.30;19.02;;;32.80;99.90;;;;;;5036624;28;20049;-85
2023/07/16 08:36:31;;;;;;;21.55;18.42;;;32.80;99.90;;;;;;5041256;28;20033;-83
2023/07/16 08:38:58;;;;;;;20.95;18.65;;;33.00;99.90;;;;;;5037586;28;20063;-85
2023/07/16 08:41:27;;;;;;;16.75;15.00;;;33.30;99.90;;;;;;5039404;28;20091;-82
2023/07/16 08:43:55;;;;;;;16.80;15.05;;;33.30;99.90;;;;;;5042098;28;20049;-83
2023/07/16 08:46:22;;;;;;;20.88;18.67;;;33.30;99.90;;;;;;5051061;28;20172;-84
2023/07/16 08:48:50;;;;;;;17.27;15.48;;;33.20;99.90;;;;;;5050508;28;20558;-84
2023/07/16 08:51:17;;;;;;;13.85;12.45;;;33.40;99.90;;;;;;5049330;28;20053;-84
2023/07/16 08:53:45;;;;;;;15.93;14.40;;;33.40;99.90;;;;;;5048475;28;20102;-84
2023/07/16 08:56:12;;;;;;;15.68;12.73;;;33.40;99.90;;;;;;5049924;28;20551;-83
2023/07/16 08:58:44;;;;;;;17.17;12.52;;;33.60;99.90;;;;;;5050686;28;20041;-84
2023/07/16 09:01:12;;;;;;;15.07;13.32;;;33.70;99.90;;;;;;5049302;28;20045;-82
2023/07/16 09:03:39;;;;;;;15.27;13.32;;;33.90;99.90;;;;;;5049840;28;20547;-83
2023/07/16 09:06:07;;;;;;;17.27;14.18;;;33.90;99.90;;;;;;5049522;28;20041;-82
2023/07/16 09:08:34;;;;;;;18.48;14.55;;;33.90;99.90;;;;;;5050082;28;20040;-84
2023/07/16 09:11:02;;;;;;;21.13;15.95;;;34.00;99.90;;;;;;5049525;28;20044;-85
2023/07/16 09:13:31;;;;;;;19.38;15.40;;;34.20;99.90;;;;;;5050067;28;20037;-84
2023/07/16 09:16:00;;;;;;;18.13;14.00;;;34.30;99.90;;;;;;5049970;28;20071;-83
2023/07/16 09:18:28;;;;;;;16.30;14.80;;;34.40;99.90;;;;;;5049681;28;20056;-83
2023/07/16 09:20:56;;;;;;;15.30;13.80;;;34.40;99.90;;;;;;5049565;28;20045;-82
2023/07/16 09:23:27;;;;;;;18.20;14.38;;;34.40;99.90;;;;;;5049111;28;20095;-84
2023/07/16 09:25:55;;;;;;;17.13;12.80;;;34.30;99.90;;;;;;5036173;28;20382;-84
2023/07/16 09:28:22;;;;;;;17.52;13.90;;;34.30;99.90;;;;;;5030100;28;20213;-84
2023/07/16 09:30:50;;;;;;;17.67;13.50;;;34.20;99.90;;;;;;5011332;28;20574;-83
2023/07/16 09:33:21;;;;;;;15.20;13.48;;;34.20;99.90;;;;;;5028686;28;20539;-83
2023/07/16 09:35:50;;;;;;;18.65;15.43;;;34.20;99.90;;;;;;5030573;28;20046;-84
2023/07/16 09:38:18;;;;;;;17.52;14.52;;;34.20;99.90;;;;;;5032903;28;20548;-85
2023/07/16 09:40:45;;;;;;;16.15;12.95;;;34.30;99.90;;;;;;5032570;28;20045;-87
2023/07/16 09:43:14;;;;;;;15.55;12.77;;;34.40;99.90;;;;;;5032975;28;20041;-84
2023/07/16 09:45:41;;;;;;;16.13;13.48;;;34.50;99.90;;;;;;5049515;28;20044;-83
2023/07/16 09:48:09;;;;;;;15.35;13.52;;;34.50;99.90;;;;;;5049553;28;20140;-85
2023/07/16 09:50:39;;;;;;;17.98;16.02;;;34.60;99.90;;;;;;5049479;28;20056;-83
2023/07/16 09:53:07;;;;;;;16.98;15.32;;;34.90;99.90;;;;;;5049814;28;20033;-82
2023/07/16 09:55:36;;;;;;;17.90;16.10;;;35.00;99.90;;;;;;5055600;28;20047;-85
2023/07/16 09:58:09;;;;;;;19.73;17.73;;;35.10;99.90;;;;;;5050494;28;20059;-83
2023/07/16 10:00:38;;;;;;;19.65;17.67;;;35.20;99.90;;;;;;5050118;28;20137;-85
2023/07/16 10:03:08;;;;;;;17.88;16.17;;;35.20;99.90;;;;;;5049469;28;20041;-86
2023/07/16 10:05:39;;;;;;;16.20;14.60;;;35.20;99.90;;;;;;5050185;28;20492;-83
2023/07/16 10:08:16;;;;;;;19.10;17.10;;;35.00;99.90;;;;;;5051981;28;20412;-84
2023/07/16 10:10:45;;;;;;;21.10;19.08;;;34.90;99.90;;;;;;5055823;28;20508;-83
2023/07/16 10:13:14;;;;;;;16.20;13.30;;;35.00;99.90;;;;;;5051112;28;20323;-83
2023/07/16 10:15:52;;;;;;;16.23;13.93;;;35.00;99.90;;;;;;5047976;28;20485;-84
2023/07/16 10:18:25;;;;;;;14.63;12.95;;;35.10;99.90;;;;;;5048097;28;20044;-83
2023/07/16 10:20:54;;;;;;;16.13;13.18;;;35.20;99.90;;;;;;5048303;28;20064;-83
2023/07/16 10:23:21;;;;;;;15.77;13.82;;;35.10;99.90;;;;;;5035658;28;20433;-86
2023/07/16 10:26:05;;;;;;;18.27;14.02;;;35.00;99.90;;;;;;5033176;28;20116;-84
2023/07/16 10:28:33;;;;;;;18.35;13.75;;;35.10;99.90;;;;;;5031537;28;20042;-83
2023/07/16 10:31:01;;;;;;;16.25;12.07;;;35.20;99.90;;;;;;5036563;28;20057;-83
2023/07/16 10:33:28;;;;;;;13.65;11.32;;;35.20;99.90;;;;;;5038371;28;20041;-84
2023/07/16 10:35:58;;;;;;;23.20;18.08;;;35.30;99.90;;;;;;5033842;28;20041;-85
2023/07/16 10:38:26;;;;;;;15.00;12.88;;;35.30;99.90;;;;;;5032692;28;20064;-84
2023/07/16 10:40:53;;;;;;;13.45;11.68;;;35.20;99.90;;;;;;5032616;28;20125;-83
2023/07/16 10:43:22;;;;;;;23.02;15.18;;;35.20;99.90;;;;;;5036171;28;20064;-83
2023/07/16 10:45:51;;;;;;;16.60;13.57;;;35.20;99.90;;;;;;5052721;28;20130;-83
2023/07/16 10:48:18;;;;;;;15.23;13.63;;;35.30;99.90;;;;;;5052441;28;20053;-84
2023/07/16 10:50:46;;;;;;;19.35;13.93;;;35.40;99.90;;;;;;5051918;28;20041;-84
2023/07/16 10:53:14;;;;;;;18.02;13.88;;;35.30;99.90;;;;;;5052051;28;20036;-84
2023/07/16 10:55:42;;;;;;;13.63;10.02;;;35.20;99.90;;;;;;5052617;28;20037;-83
2023/07/16 10:58:10;;;;;;;17.55;11.23;;;35.30;99.90;;;;;;5052569;28;20102;-82
2023/07/16 11:00:39;;;;;;;16.30;12.25;;;35.20;99.90;;;;;;5051282;28;20064;-82
2023/07/16 11:03:08;;;;;;;17.67;14.77;;;35.10;99.90;;;;;;5058637;28;20048;-83
2023/07/16 11:05:36;;;;;;;17.73;15.05;;;35.10;99.90;;;;;;5054648;28;20433;-84
2023/07/16 11:08:03;;;;;;;21.27;18.33;;;35.20;99.90;;;;;;5051992;28;20049;-83
2023/07/16 11:10:32;;;;;;;12.77;10.65;;;35.20;99.90;;;;;;5051866;28;20090;-83
2023/07/16 11:13:00;;;;;;;10.55;8.77;;;35.30;99.90;;;;;;5051782;28;20099;-83
2023/07/16 11:15:34;;;;;;;12.57;8.93;;;35.30;99.90;;;;;;5051817;28;20049;-83
2023/07/16 11:18:02;;;;;;;11.95;9.43;;;35.20;99.90;;;;;;5042477;28;20049;-83
2023/07/16 11:20:30;;;;;;;11.20;9.75;;;35.30;99.90;;;;;;5030952;28;20520;-83
2023/07/16 11:23:00;;;;;;;12.40;9.30;;;35.30;99.90;;;;;;5030345;28;20104;-83
2023/07/16 11:25:28;;;;;;;12.73;9.23;;;35.30;99.90;;;;;;5032128;28;20227;-83
2023/07/16 11:27:57;;;;;;;13.15;8.80;;;35.30;99.90;;;;;;5030443;28;20117;-83
2023/07/16 11:30:25;;;;;;;10.35;9.30;;;35.40;99.90;;;;;;5029812;28;20092;-85
2023/07/16 11:32:53;;;;;;;11.38;9.48;;;35.40;99.90;;;;;;5031815;28;20230;-84
2023/07/16 11:35:21;;;;;;;10.82;8.88;;;35.30;99.90;;;;;;5029376;28;20064;-83
2023/07/16 11:37:49;;;;;;;10.30;8.20;;;35.20;99.90;;;;;;5030308;28;20056;-82
2023/07/16 11:40:18;;;;;;;17.83;8.25;;;35.20;99.90;;;;;;5035302;28;20049;-84
2023/07/16 11:42:46;;;;;;;8.63;7.75;;;35.20;99.90;;;;;;5051879;28;20558;-83
2023/07/16 11:45:20;;;;;;;9.43;8.30;;;35.20;99.90;;;;;;5050360;28;20136;-83
2023/07/16 11:47:47;;;;;;;13.00;9.10;;;35.30;99.90;;;;;;5050908;28;20056;-83
2023/07/16 11:50:15;;;;;;;9.50;8.10;;;35.40;99.90;;;;;;5050656;28;20048;-83
2023/07/16 11:52:43;;;;;;;9.43;8.23;;;35.40;99.90;;;;;;5051335;28;20041;-83
2023/07/16 11:55:10;;;;;;;20.13;18.20;;;35.40;99.90;;;;;;5052416;28;20405;-81
2023/07/16 11:57:37;;;;;;;21.77;19.00;;;35.30;99.90;;;;;;5050861;28;20053;-84
2023/07/16 12:00:06;;;;;;;9.88;7.68;;;35.20;99.90;;;;;;5050296;28;20075;-83
2023/07/16 12:02:35;;;;;;;9.27;7.53;;;35.20;99.90;;;;;;5050769;28;20068;-83
2023/07/16 12:05:02;;;;;;;10.15;9.05;;;35.20;99.90;;;;;;5050946;28;20090;-83
2023/07/16 12:07:34;;;;;;;9.27;8.23;;;35.20;99.90;;;;;;5051160;28;20330;-83
2023/07/16 12:10:03;;;;;;;9.93;8.27;;;35.20;99.90;;;;;;5051008;28;20079;-84
2023/07/16 12:12:31;;;;;;;10.95;8.98;;;35.30;99.90;;;;;;5058616;28;20049;-84
2023/07/16 12:14:58;;;;;;;9.73;8.10;;;35.20;99.90;;;;;;5036006;28;20095;-83
2023/07/16 12:17:25;;;;;;;9.50;8.52;;;35.20;99.90;;;;;;5041015;28;20054;-83
2023/07/16 12:19:54;;;;;;;10.18;8.55;;;35.10;99.90;;;;;;5049488;28;20311;-85
2023/07/16 12:22:22;;;;;;;9.95;8.00;;;35.00;99.90;;;;;;5044253;28;20053;-84
2023/07/16 12:24:49;;;;;;;12.52;7.88;;;35.00;99.90;;;;;;5029190;28;20053;-83
2023/07/16 12:27:16;;;;;;;8.88;7.97;;;35.10;99.90;;;;;;5030751;28;20068;-83
2023/07/16 12:29:44;;;;;;;8.75;7.82;;;35.00;99.90;;;;;;5044118;28;20037;-83
2023/07/16 12:32:12;;;;;;;9.77;8.05;;;35.00;99.90;;;;;;5050146;28;20477;-82
2023/07/16 12:34:39;;;;;;;13.13;8.00;;;34.90;99.90;;;;;;5049297;28;20065;-83